Time;durP1;ratioP1;P1;durP2;ratioP2;P2;SDS_P1;SDS_P2;PMS_P1;PMS_P2;Temp;Humidity;BMP_temperature;BMP_pressure;BME280_temperature;BME280_humidity;BME280_pressure;Samples;Min_cycle;Max_cycle;Signal;HPM_P1;HPM_P2
2024/01/25 00:01:47;;;;;;;;;;;8.80;99.90;;;-146.41;100.00;57768.22;5007607;28;1421;-70
2024/01/25 00:04:15;;;;;;;;;;;8.90;99.90;;;-146.41;100.00;57768.22;5006663;28;1372;-70
2024/01/25 00:06:42;;;;;;;;;;;8.80;99.90;;;-146.41;100.00;57768.22;5007211;28;1412;-70
2024/01/25 00:09:09;;;;;;;;;;;8.80;99.90;;;-146.41;100.00;57768.22;5007824;28;1906;-70
2024/01/25 00:11:36;;;;;;;;;;;8.80;99.90;;;-146.41;100.00;57768.22;5007194;28;1401;-69
2024/01/25 00:14:04;;;;;;;;;;;8.80;99.90;;;-146.41;100.00;57768.22;5007231;28;1456;-70
2024/01/25 00:16:31;;;;;;;;;;;8.70;99.90;;;-146.41;100.00;57768.22;5036885;28;1458;-71
2024/01/25 00:18:58;;;;;;;;;;;8.80;99.90;;;-146.41;100.00;57768.22;5007583;28;1101;-70
2024/01/25 00:21:25;;;;;;;;;;;8.80;99.90;;;-146.41;100.00;57768.22;5007391;28;1095;-70
2024/01/25 00:23:52;;;;;;;;;;;8.80;99.90;;;-146.41;100.00;57768.22;5007677;28;1281;-71
2024/01/25 00:26:18;;;;;;;;;;;8.70;99.90;;;-146.41;100.00;57768.22;5006174;28;1504;-71
2024/01/25 00:28:45;;;;;;;;;;;8.70;99.90;;;-146.41;100.00;57768.22;5007821;28;1649;-70
2024/01/25 00:31:12;;;;;;;;;;;8.80;99.90;;;-146.41;100.00;57768.22;5021907;28;1984;-70
2024/01/25 00:33:39;;;;;;;;;;;8.70;99.90;;;-146.41;100.00;57768.22;5007248;28;1280;-70
2024/01/25 00:36:07;;;;;;;;;;;8.70;99.90;;;-146.41;100.00;57768.22;5023115;28;1435;-70
2024/01/25 00:38:34;;;;;;;;;;;8.70;99.90;;;-146.41;100.00;57768.22;5037798;28;1503;-70
2024/01/25 00:41:01;;;;;;;;;;;8.70;99.90;;;-146.41;100.00;57768.22;5005660;28;1341;-70
2024/01/25 00:43:28;;;;;;;;;;;8.70;99.90;;;-146.41;100.00;57768.22;5006465;28;1467;-70
2024/01/25 00:45:55;;;;;;;;;;;8.80;99.90;;;-146.41;100.00;57768.22;5006495;28;1500;-71
2024/01/25 00:48:23;;;;;;;;;;;8.80;99.90;;;-146.41;100.00;57768.22;5006888;28;1404;-70
2024/01/25 00:50:51;;;;;;;;;;;8.80;99.90;;;-146.41;100.00;57768.22;5006013;28;1910;-69
2024/01/25 00:53:18;;;;;;;;;;;8.60;99.90;;;-146.41;100.00;57768.22;5007409;28;1642;-70
2024/01/25 00:55:45;;;;;;;;;;;8.70;99.90;;;-146.41;100.00;57768.22;5005189;28;1401;-70
2024/01/25 00:58:12;;;;;;;;;;;8.70;99.90;;;-146.41;100.00;57768.22;5021462;28;1353;-70
2024/01/25 01:00:39;;;;;;;;;;;8.70;99.90;;;-146.41;100.00;57768.22;5038115;28;1373;-70
2024/01/25 01:03:07;;;;;;;;;;;8.70;99.90;;;-146.41;100.00;57768.22;5005518;28;1124;-70
2024/01/25 01:05:34;;;;;;;;;;;8.70;99.90;;;-146.41;100.00;57768.22;5021168;28;1475;-70
2024/01/25 01:08:02;;;;;;;;;;;8.70;99.90;;;-146.41;100.00;57768.22;5007153;28;1416;-70
2024/01/25 01:10:29;;;;;;;;;;;8.70;99.90;;;-146.41;100.00;57768.22;5004834;28;1988;-70
2024/01/25 01:12:56;;;;;;;;;;;8.70;99.90;;;-146.41;100.00;57768.22;5004717;28;1377;-69
2024/01/25 01:15:23;;;;;;;;;;;8.70;99.90;;;-146.41;100.00;57768.22;5006354;28;1364;-70
2024/01/25 01:17:49;;;;;;;;;;;8.70;99.90;;;-146.41;100.00;57768.22;5007288;28;1392;-70
2024/01/25 01:20:17;;;;;;;;;;;8.60;99.90;;;-146.41;100.00;57768.22;5006429;28;1476;-71
2024/01/25 01:22:43;;;;;;;;;;;8.60;99.90;;;-146.41;100.00;57768.22;5021186;28;1384;-70
2024/01/25 01:25:10;;;;;;;;;;;8.60;99.90;;;-146.41;100.00;57768.22;5006743;28;1661;-70
2024/01/25 01:27:37;;;;;;;;;;;8.60;99.90;;;-146.41;100.00;57768.22;5007322;28;1575;-71
2024/01/25 01:30:08;;;;;;;;;;;8.60;99.90;;;-146.41;100.00;57768.22;5006466;28;2000;-70
2024/01/25 01:32:34;;;;;;;;;;;8.60;99.90;;;-146.41;100.00;57768.22;5036387;28;1388;-70
2024/01/25 01:35:02;;;;;;;;;;;8.60;99.90;;;-146.41;100.00;57768.22;5007390;28;1324;-71
2024/01/25 01:37:29;;;;;;;;;;;8.50;99.90;;;-146.41;100.00;57768.22;5020353;28;1602;-70
2024/01/25 01:39:58;;;;;;;;;;;8.40;99.90;;;-146.41;100.00;57768.22;5005738;28;1449;-71
2024/01/25 01:42:25;;;;;;;;;;;8.50;99.90;;;-146.41;100.00;57768.22;5018634;28;1474;-70
2024/01/25 01:44:52;;;;;;;;;;;8.40;99.90;;;-146.41;100.00;57768.22;5006009;28;1471;-70
2024/01/25 01:47:19;;;;;;;;;;;8.40;99.90;;;-146.41;100.00;57768.22;5004602;28;1436;-71
2024/01/25 01:49:47;;;;;;;;;;;8.40;99.90;;;-146.41;100.00;57768.22;5034789;28;1981;-71
2024/01/25 01:52:15;;;;;;;;;;;8.40;99.90;;;-146.41;100.00;57768.22;5036356;28;1017;-71
2024/01/25 01:54:42;;;;;;;;;;;8.40;99.90;;;-146.41;100.00;57768.22;5019668;28;1423;-70
2024/01/25 01:57:10;;;;;;;;;;;8.30;99.90;;;-146.41;100.00;57768.22;5007068;28;1348;-70
2024/01/25 01:59:37;;;;;;;;;;;8.40;99.90;;;-146.41;100.00;57768.22;5005781;28;1607;-70
2024/01/25 02:02:04;;;;;;;;;;;8.30;99.90;;;-146.41;100.00;57768.22;5005480;28;1500;-70
2024/01/25 02:04:31;;;;;;;;;;;8.30;99.90;;;-146.41;100.00;57768.22;5019646;28;1586;-70
2024/01/25 02:06:58;;;;;;;;;;;8.30;99.90;;;-146.41;100.00;57768.22;5020576;28;1785;-71
2024/01/25 02:09:25;;;;;;;;;;;8.30;99.90;;;-146.41;100.00;57768.22;5020771;28;1444;-70
2024/01/25 02:12:02;;;;;;;;;;;8.30;99.90;;;-146.41;100.00;57768.22;5019538;28;1424;-71
2024/01/25 02:14:30;;;;;;;;;;;8.30;99.90;;;-146.41;100.00;57768.22;5033691;28;1645;-70
2024/01/25 02:16:57;;;;;;;;;;;8.30;99.90;;;-146.41;100.00;57768.22;4993040;28;1732;-70
2024/01/25 02:19:24;;;;;;;;;;;8.30;99.90;;;-146.41;100.00;57768.22;5005828;28;1515;-70
2024/01/25 02:21:53;;;;;;;;;;;8.20;99.90;;;-146.41;100.00;57768.22;5019933;28;1310;-70
2024/01/25 02:24:20;;;;;;;;;;;8.20;99.90;;;-146.41;100.00;57768.22;5021881;28;1611;-70
2024/01/25 02:26:47;;;;;;;;;;;8.20;99.90;;;-146.41;100.00;57768.22;5003567;28;1454;-70
2024/01/25 02:29:15;;;;;;;;;;;8.20;99.90;;;-146.41;100.00;57768.22;5006279;28;1298;-70
2024/01/25 02:31:42;;;;;;;;;;;8.10;99.90;;;-146.41;100.00;57768.22;5006549;28;1903;-70
2024/01/25 02:34:09;;;;;;;;;;;8.10;99.90;;;-146.41;100.00;57768.22;5006397;28;1359;-71
2024/01/25 02:36:37;;;;;;;;;;;8.10;99.90;;;-146.41;100.00;57768.22;5006856;28;1354;-70
2024/01/25 02:39:04;;;;;;;;;;;8.00;99.90;;;-146.41;100.00;57768.22;5006645;28;1738;-71
2024/01/25 02:41:32;;;;;;;;;;;8.00;99.90;;;-146.41;100.00;57768.22;5034282;28;1286;-70
2024/01/25 02:44:00;;;;;;;;;;;8.10;99.90;;;-146.41;100.00;57768.22;5036075;28;1363;-70
2024/01/25 02:46:27;;;;;;;;;;;8.10;99.90;;;-146.41;100.00;57768.22;5006651;28;1512;-70
2024/01/25 02:48:54;;;;;;;;;;;8.10;99.90;;;-146.41;100.00;57768.22;5005649;28;1330;-70
2024/01/25 02:51:21;;;;;;;;;;;8.10;99.90;;;-146.41;100.00;57768.22;5008326;28;1907;-70
2024/01/25 02:53:48;;;;;;;;;;;8.10;99.90;;;-146.41;100.00;57768.22;5007109;28;1690;-70
2024/01/25 02:56:16;;;;;;;;;;;8.10;99.90;;;-146.41;100.00;57768.22;5020074;28;1290;-70
2024/01/25 02:58:43;;;;;;;;;;;8.10;99.90;;;-146.41;100.00;57768.22;5023862;28;1358;-70
2024/01/25 03:01:09;;;;;;;;;;;8.10;99.90;;;-146.41;100.00;57768.22;5009954;28;1235;-70
2024/01/25 03:03:36;;;;;;;;;;;8.00;99.90;;;-146.41;100.00;57768.22;5010931;28;1282;-71
2024/01/25 03:06:06;;;;;;;;;;;8.10;99.90;;;-146.41;100.00;57768.22;5008742;28;1366;-69
2024/01/25 03:08:33;;;;;;;;;;;8.10;99.90;;;-146.41;100.00;57768.22;5009136;28;1533;-70
2024/01/25 03:11:00;;;;;;;;;;;8.10;99.90;;;-146.41;100.00;57768.22;5016057;28;1906;-70
2024/01/25 03:13:27;;;;;;;;;;;8.10;99.90;;;-146.41;100.00;57768.22;5008137;28;1476;-70
2024/01/25 03:15:53;;;;;;;;;;;8.10;99.90;;;-146.41;100.00;57768.22;5024432;28;1391;-70
2024/01/25 03:18:20;;;;;;;;;;;8.10;99.90;;;-146.41;100.00;57768.22;5023472;28;1442;-70
2024/01/25 03:20:50;;;;;;;;;;;8.10;99.90;;;-146.41;100.00;57768.22;5008326;28;1367;-70
2024/01/25 03:23:17;;;;;;;;;;;8.10;99.90;;;-146.41;100.00;57768.22;5024913;28;1311;-70
2024/01/25 03:25:44;;;;;;;;;;;8.10;99.90;;;-146.41;100.00;57768.22;5009931;28;1445;-70
2024/01/25 03:28:13;;;;;;;;;;;8.00;99.90;;;-146.41;100.00;57768.22;5039207;28;1219;-70
2024/01/25 03:30:40;;;;;;;;;;;8.00;99.90;;;-146.41;100.00;57768.22;5010849;28;1914;-71
2024/01/25 03:33:08;;;;;;;;;;;7.90;99.90;;;-146.41;100.00;57768.22;5009798;28;1278;-70
2024/01/25 03:35:35;;;;;;;;;;;7.90;99.90;;;-146.41;100.00;57768.22;5008274;28;1343;-70
2024/01/25 03:38:02;;;;;;;;;;;7.90;99.90;;;-146.41;100.00;57768.22;5010493;28;1321;-70
2024/01/25 03:40:28;;;;;;;;;;;7.90;99.90;;;-146.41;100.00;57768.22;5008053;28;1010;-70
2024/01/25 03:42:56;;;;;;;;;;;7.90;99.90;;;-146.41;100.00;57768.22;5009325;28;1306;-70
2024/01/25 03:45:43;;;;;;;;;;;7.90;99.90;;;-146.41;100.00;57768.22;5009079;28;2163;-70
2024/01/25 03:48:10;;;;;;;;;;;7.90;99.90;;;-146.41;100.00;57768.22;5021414;28;1350;-70
2024/01/25 03:50:37;;;;;;;;;;;7.90;99.90;;;-146.41;100.00;57768.22;5037045;28;1926;-70
2024/01/25 03:53:06;;;;;;;;;;;7.90;99.90;;;-146.41;100.00;57768.22;5008860;28;1346;-70
2024/01/25 03:55:33;;;;;;;;;;;7.80;99.90;;;-146.41;100.00;57768.22;5010150;28;1670;-70
2024/01/25 03:58:01;;;;;;;;;;;7.80;99.90;;;-146.41;100.00;57768.22;5009012;28;1294;-69
2024/01/25 04:00:28;;;;;;;;;;;7.80;99.90;;;-146.41;100.00;57768.22;5009124;28;1360;-71
2024/01/25 04:02:55;;;;;;;;;;;7.80;99.90;;;-146.41;100.00;57768.22;5006750;28;1334;-70
2024/01/25 04:05:22;;;;;;;;;;;7.70;99.90;;;-146.41;100.00;57768.22;5010228;28;1568;-70
2024/01/25 04:07:49;;;;;;;;;;;7.80;99.90;;;-146.41;100.00;57768.22;5010428;28;1338;-70
2024/01/25 04:10:16;;;;;;;;;;;7.80;99.90;;;-146.41;100.00;57768.22;5009668;28;1902;-70
2024/01/25 04:12:43;;;;;;;;;;;7.70;99.90;;;-146.41;100.00;57768.22;5011172;28;1336;-70
2024/01/25 04:15:10;;;;;;;;;;;7.70;99.90;;;-146.41;100.00;57768.22;5008525;28;1247;-70
2024/01/25 04:17:37;;;;;;;;;;;7.70;99.90;;;-146.41;100.00;57768.22;5024003;28;1644;-70
2024/01/25 04:20:04;;;;;;;;;;;7.70;99.90;;;-146.41;100.00;57768.22;5024014;28;1243;-70
2024/01/25 04:22:31;;;;;;;;;;;7.70;99.90;;;-146.41;100.00;57768.22;5007857;28;1294;-70
2024/01/25 04:24:58;;;;;;;;;;;7.60;99.90;;;-146.41;100.00;57768.22;5008533;28;1417;-70
2024/01/25 04:27:26;;;;;;;;;;;7.60;99.90;;;-146.41;100.00;57768.22;5007420;28;1196;-70
2024/01/25 04:29:53;;;;;;;;;;;7.60;99.90;;;-146.41;100.00;57768.22;5009341;28;1619;-71
2024/01/25 04:32:19;;;;;;;;;;;7.60;99.90;;;-146.41;100.00;57768.22;5008783;28;1971;-69
2024/01/25 04:34:47;;;;;;;;;;;7.60;99.90;;;-146.41;100.00;57768.22;5038781;28;1343;-69
2024/01/25 04:37:15;;;;;;;;;;;7.50;99.90;;;-146.41;100.00;57768.22;5008326;28;1318;-70
2024/01/25 04:39:42;;;;;;;;;;;7.50;99.90;;;-146.41;100.00;57768.22;5037509;28;1380;-70
2024/01/25 04:42:09;;;;;;;;;;;7.50;99.90;;;-146.41;100.00;57768.22;5006219;28;1163;-70
2024/01/25 04:44:36;;;;;;;;;;;7.40;99.90;;;-146.41;100.00;57768.22;5014137;28;1364;-70
2024/01/25 04:47:03;;;;;;;;;;;7.40;99.90;;;-146.41;100.00;57768.22;5007977;28;1227;-70
2024/01/25 04:49:30;;;;;;;;;;;7.30;99.90;;;-146.41;100.00;57768.22;5007230;28;2030;-71
2024/01/25 04:51:57;;;;;;;;;;;7.30;99.90;;;-146.41;100.00;57768.22;5026332;28;1910;-70
2024/01/25 04:54:24;;;;;;;;;;;7.30;99.90;;;-146.41;100.00;57768.22;4988065;28;1489;-70
2024/01/25 04:56:51;;;;;;;;;;;7.30;99.90;;;-146.41;100.00;57768.22;5037239;28;1290;-69
2024/01/25 04:59:18;;;;;;;;;;;7.30;99.90;;;-146.41;100.00;57768.22;5007438;28;1439;-71
2024/01/25 05:01:45;;;;;;;;;;;7.20;99.90;;;-146.41;100.00;57768.22;5006900;28;1426;-70
2024/01/25 05:04:12;;;;;;;;;;;7.30;99.90;;;-146.41;100.00;57768.22;5037383;28;1470;-70
2024/01/25 05:06:39;;;;;;;;;;;7.20;99.90;;;-146.41;100.00;57768.22;5037470;28;1519;-70
2024/01/25 05:09:08;;;;;;;;;;;7.20;99.90;;;-146.41;100.00;57768.22;5008213;28;1565;-70
2024/01/25 05:11:41;;;;;;;;;;;7.30;99.90;;;-146.41;100.00;57768.22;5009271;28;2342;-69
2024/01/25 05:14:08;;;;;;;;;;;7.20;99.90;;;-146.41;100.00;57768.22;5006568;28;1301;-70
2024/01/25 05:16:35;;;;;;;;;;;7.20;99.90;;;-146.41;100.00;57768.22;5009594;28;1318;-71
2024/01/25 05:19:02;;;;;;;;;;;7.20;99.90;;;-146.41;100.00;57768.22;5008894;28;1235;-70
2024/01/25 05:21:29;;;;;;;;;;;7.20;99.90;;;-146.41;100.00;57768.22;5005492;28;1095;-70
2024/01/25 05:23:56;;;;;;;;;;;7.20;99.90;;;-146.41;100.00;57768.22;5007961;28;1411;-70
2024/01/25 05:26:23;;;;;;;;;;;7.10;99.90;;;-146.41;100.00;57768.22;5007102;28;1325;-70
2024/01/25 05:28:50;;;;;;;;;;;7.10;99.90;;;-146.41;100.00;57768.22;5006100;28;1362;-70
2024/01/25 05:31:17;;;;;;;;;;;7.00;99.90;;;-146.41;100.00;57768.22;5019363;28;1995;-70
2024/01/25 05:33:44;;;;;;;;;;;7.00;99.90;;;-146.41;100.00;57768.22;5006749;28;1573;-70
2024/01/25 05:36:13;;;;;;;;;;;7.00;99.90;;;-146.41;100.00;57768.22;5006627;28;1247;-70
2024/01/25 05:38:40;;;;;;;;;;;7.10;99.90;;;-146.41;100.00;57768.22;5006221;28;1267;-71
2024/01/25 05:41:07;;;;;;;;;;;7.10;99.90;;;-146.41;100.00;57768.22;5005588;28;1313;-70
2024/01/25 05:43:34;;;;;;;;;;;7.10;99.90;;;-146.41;100.00;57768.22;5006977;28;1263;-70
2024/01/25 05:46:01;;;;;;;;;;;7.20;99.90;;;-146.41;100.00;57768.22;5008450;28;1368;-71
2024/01/25 05:48:31;;;;;;;;;;;7.30;99.90;;;-146.41;100.00;57768.22;5005180;28;1298;-70
2024/01/25 05:50:58;;;;;;;;;;;7.30;99.90;;;-146.41;100.00;57768.22;5022241;28;1894;-71
2024/01/25 05:53:25;;;;;;;;;;;7.40;99.90;;;-146.41;100.00;57768.22;5005395;28;1274;-70
2024/01/25 05:55:52;;;;;;;;;;;7.40;99.90;;;-146.41;100.00;57768.22;5006387;28;1371;-70
2024/01/25 05:58:19;;;;;;;;;;;7.40;99.90;;;-146.41;100.00;57768.22;5005575;28;1446;-70
2024/01/25 06:00:46;;;;;;;;;;;7.40;99.90;;;-146.41;100.00;57768.22;5036518;28;1316;-70
2024/01/25 06:03:13;;;;;;;;;;;7.40;99.90;;;-146.41;100.00;57768.22;5005721;28;1235;-71
2024/01/25 06:05:40;;;;;;;;;;;7.30;99.90;;;-146.41;100.00;57768.22;5007411;28;1591;-70
2024/01/25 06:08:08;;;;;;;;;;;7.30;99.90;;;-146.41;100.00;57768.22;5008352;28;1437;-70
2024/01/25 06:10:35;;;;;;;;;;;7.10;99.90;;;-146.41;100.00;57768.22;5007534;28;1993;-70
2024/01/25 06:13:02;;;;;;;;;;;6.90;99.90;;;-146.41;100.00;57768.22;5004600;28;1312;-70
2024/01/25 06:15:29;;;;;;;;;;;6.80;99.90;;;-146.41;100.00;57768.22;5004542;28;1309;-72
2024/01/25 06:17:56;;;;;;;;;;;6.50;99.90;;;-146.41;100.00;57768.22;5020571;28;1137;-70
2024/01/25 06:20:23;;;;;;;;;;;6.40;99.90;;;-146.41;100.00;57768.22;5019691;28;1220;-70
2024/01/25 06:22:50;;;;;;;;;;;6.30;99.90;;;-146.41;100.00;57768.22;5002120;28;1321;-70
2024/01/25 06:25:17;;;;;;;;;;;6.30;99.90;;;-146.41;100.00;57768.22;5005465;28;1236;-70
2024/01/25 06:27:44;;;;;;;;;;;6.10;99.90;;;-146.41;100.00;57768.22;5006345;28;1046;-70
2024/01/25 06:30:11;;;;;;;;;;;6.00;99.90;;;-146.41;100.00;57768.22;5005135;28;1324;-69
2024/01/25 06:32:38;;;;;;;;;;;6.00;99.90;;;-146.41;100.00;57768.22;5004216;28;1918;-70
2024/01/25 06:35:05;;;;;;;;;;;6.00;99.90;;;-146.41;100.00;57768.22;5007623;28;1433;-69
2024/01/25 06:37:33;;;;;;;;;;;5.90;99.90;;;-146.41;100.00;57768.22;5009138;28;1073;-70
2024/01/25 06:40:00;;;;;;;;;;;5.90;99.90;;;-146.41;100.00;57768.22;5023758;28;1006;-69
2024/01/25 06:42:27;;;;;;;;;;;5.90;99.90;;;-146.41;100.00;57768.22;5008199;28;1051;-72
2024/01/25 06:44:53;;;;;;;;;;;5.90;99.90;;;-146.41;100.00;57768.22;5005159;28;1392;-70
2024/01/25 06:47:20;;;;;;;;;;;5.90;99.90;;;-146.41;100.00;57768.22;5041784;28;1030;-69
2024/01/25 06:49:51;;;;;;;;;;;5.90;99.90;;;-146.41;100.00;57768.22;5010747;28;1153;-69
2024/01/25 06:52:19;;;;;;;;;;;5.90;99.90;;;-146.41;100.00;57768.22;5024089;28;1971;-69
2024/01/25 06:54:46;;;;;;;;;;;5.90;99.90;;;-146.41;100.00;57768.22;5008057;28;1367;-69
2024/01/25 06:57:14;;;;;;;;;;;5.90;99.90;;;-146.41;100.00;57768.22;5008529;28;1054;-69
2024/01/25 06:59:41;;;;;;;;;;;5.90;99.90;;;-146.41;100.00;57768.22;5008992;28;1051;-69
2024/01/25 07:02:09;;;;;;;;;;;5.90;99.90;;;-146.41;100.00;57768.22;5008965;28;987;-70
2024/01/25 07:04:38;;;;;;;;;;;5.80;99.90;;;-146.41;100.00;57768.22;5009854;28;1280;-69
2024/01/25 07:07:05;;;;;;;;;;;5.60;99.90;;;-146.41;100.00;57768.22;5009818;28;1105;-70
2024/01/25 07:09:32;;;;;;;;;;;5.60;99.90;;;-146.41;100.00;57768.22;5008206;28;1361;-69
2024/01/25 07:11:59;;;;;;;;;;;5.60;99.90;;;-146.41;100.00;57768.22;5007914;28;1902;-69
2024/01/25 07:14:26;;;;;;;;;;;5.60;99.90;;;-146.41;100.00;57768.22;5023861;28;1379;-69
2024/01/25 07:16:53;;;;;;;;;;;5.60;99.90;;;-146.41;100.00;57768.22;5022561;28;1165;-72
2024/01/25 07:19:20;;;;;;;;;;;5.60;99.90;;;-146.41;100.00;57768.22;5005565;28;1182;-69
2024/01/25 07:21:47;;;;;;;;;;;5.60;99.90;;;-146.41;100.00;57768.22;5008066;28;1018;-70
2024/01/25 07:24:14;;;;;;;;;;;5.60;99.90;;;-146.41;100.00;57768.22;5006133;28;1434;-69
2024/01/25 07:26:41;;;;;;;;;;;5.60;99.90;;;-146.41;100.00;57768.22;5009492;28;1161;-69
2024/01/25 07:29:07;;;;;;;;;;;5.50;99.90;;;-146.41;100.00;57768.22;5006941;28;1095;-69
2024/01/25 07:31:34;;;;;;;;;;;5.30;99.90;;;-146.41;100.00;57768.22;5005651;28;1981;-70
2024/01/25 07:34:01;;;;;;;;;;;5.30;99.90;;;-146.41;100.00;57768.22;5007307;28;1414;-70
2024/01/25 07:36:28;;;;;;;;;;;5.20;99.90;;;-146.41;100.00;57768.22;5005010;28;1216;-72
2024/01/25 07:38:56;;;;;;;;;;;5.10;99.90;;;-146.41;100.00;57768.22;5006527;28;1090;-70
2024/01/25 07:41:23;;;;;;;;;;;4.90;99.90;;;-146.41;100.00;57768.22;5005692;28;1102;-70
2024/01/25 07:43:54;;;;;;;;;;;4.70;99.90;;;-146.41;100.00;57768.22;5004549;28;1291;-69
2024/01/25 07:46:23;;;;;;;;;;;4.70;99.90;;;-146.41;100.00;57768.22;5019312;28;1345;-70
2024/01/25 07:48:51;;;;;;;;;;;4.70;99.90;;;-146.41;100.00;57768.22;5006195;28;1026;-70
2024/01/25 07:51:18;;;;;;;;;;;4.80;99.90;;;-146.41;100.00;57768.22;5037950;28;2011;-69
2024/01/25 07:53:46;;;;;;;;;;;4.90;99.90;;;-146.41;100.00;57768.22;5007114;28;1304;-69
2024/01/25 07:56:13;;;;;;;;;;;5.00;99.90;;;-146.41;100.00;57768.22;5007675;28;1061;-70
2024/01/25 07:58:40;;;;;;;;;;;5.10;99.90;;;-146.41;100.00;57768.22;5026445;28;1006;-70
2024/01/25 08:01:07;;;;;;;;;;;5.10;99.90;;;-146.41;100.00;57768.22;5007535;28;1157;-69
2024/01/25 08:03:34;;;;;;;;;;;5.30;99.90;;;-146.41;100.00;57768.22;5007612;28;1301;-69
2024/01/25 08:06:02;;;;;;;;;;;5.40;99.90;;;-146.41;100.00;57768.22;5007151;28;1054;-70
2024/01/25 08:08:30;;;;;;;;;;;5.50;99.90;;;-146.41;100.00;57768.22;5022530;28;1440;-69
2024/01/25 08:10:58;;;;;;;;;;;5.60;99.90;;;-146.41;100.00;57768.22;5006139;28;1883;-68
2024/01/25 08:13:28;;;;;;;;;;;5.70;99.90;;;-146.41;100.00;57768.22;5021751;28;1899;-69
2024/01/25 08:15:58;;;;;;;;;;;5.70;99.90;;;-146.41;100.00;57768.22;5006042;28;1323;-70
2024/01/25 08:18:29;;;;;;;;;;;5.80;99.90;;;-146.41;100.00;57768.22;5020992;28;1241;-69
2024/01/25 08:20:56;;;;;;;;;;;5.80;99.90;;;-146.41;100.00;57768.22;5037135;28;1343;-70
2024/01/25 08:23:23;;;;;;;;;;;5.90;99.90;;;-146.41;100.00;57768.22;5006832;28;1276;-70
2024/01/25 08:25:50;;;;;;;;;;;5.90;99.90;;;-146.41;100.00;57768.22;5004292;28;1373;-69
2024/01/25 08:28:17;;;;;;;;;;;6.00;99.90;;;-146.41;100.00;57768.22;5020512;28;1371;-70
2024/01/25 08:30:44;;;;;;;;;;;6.00;99.90;;;-146.41;100.00;57768.22;5003737;28;1249;-70
2024/01/25 08:33:11;;;;;;;;;;;6.10;99.90;;;-146.41;100.00;57768.22;5006424;28;1983;-69
2024/01/25 08:35:40;;;;;;;;;;;6.20;99.90;;;-146.41;100.00;57768.22;5005871;28;1370;-69
2024/01/25 08:38:07;;;;;;;;;;;6.20;99.90;;;-146.41;100.00;57768.22;5005474;28;1131;-70
2024/01/25 08:40:34;;;;;;;;;;;6.20;99.90;;;-146.41;100.00;57768.22;5004945;28;1245;-69
2024/01/25 08:43:01;;;;;;;;;;;6.30;99.90;;;-146.41;100.00;57768.22;5004092;28;1108;-69
2024/01/25 08:45:28;;;;;;;;;;;6.30;99.90;;;-146.41;100.00;57768.22;5005918;28;1304;-69
2024/01/25 08:47:55;;;;;;;;;;;6.40;99.90;;;-146.41;100.00;57768.22;5021958;28;1030;-69
2024/01/25 08:50:23;;;;;;;;;;;6.40;99.90;;;-146.41;100.00;57768.22;5005029;28;1297;-70
2024/01/25 08:52:53;;;;;;;;;;;6.50;99.90;;;-146.41;100.00;57768.22;5020221;28;1898;-70
2024/01/25 08:55:19;;;;;;;;;;;6.50;99.90;;;-146.41;100.00;57768.22;5020307;28;1366;-70
2024/01/25 08:57:48;;;;;;;;;;;6.60;99.90;;;-146.41;100.00;57768.22;5004923;28;1093;-69
2024/01/25 09:00:15;;;;;;;;;;;6.60;99.90;;;-146.41;100.00;57768.22;5020161;28;1267;-69
2024/01/25 09:02:42;;;;;;;;;;;6.70;99.90;;;-146.41;100.00;57768.22;5036445;28;1224;-69
2024/01/25 09:05:09;;;;;;;;;;;6.70;99.90;;;-146.41;100.00;57768.22;5004949;28;1300;-69
2024/01/25 09:07:37;;;;;;;;;;;6.80;99.90;;;-146.41;100.00;57768.22;5005656;28;1098;-70
2024/01/25 09:10:04;;;;;;;;;;;6.80;99.90;;;-146.41;100.00;57768.22;5005802;28;1086;-70
2024/01/25 09:12:31;;;;;;;;;;;6.80;99.90;;;-146.41;100.00;57768.22;5020169;28;1983;-69
2024/01/25 09:15:00;;;;;;;;;;;6.90;99.90;;;-146.41;100.00;57768.22;5036656;28;1414;-70
2024/01/25 09:17:27;;;;;;;;;;;6.90;99.90;;;-146.41;100.00;57768.22;5034948;28;1319;-70
2024/01/25 09:19:53;;;;;;;;;;;6.90;99.90;;;-146.41;100.00;57768.22;5004277;28;1413;-69
2024/01/25 09:22:21;;;;;;;;;;;7.00;99.90;;;-146.41;100.00;57768.22;5004800;28;1331;-69
2024/01/25 09:24:48;;;;;;;;;;;7.00;99.90;;;-146.41;100.00;57768.22;5004793;28;1320;-70
2024/01/25 09:27:15;;;;;;;;;;;7.10;99.90;;;-146.41;100.00;57768.22;5034666;28;1130;-69
2024/01/25 09:29:42;;;;;;;;;;;7.20;99.90;;;-146.41;100.00;57768.22;5003425;28;1300;-70
2024/01/25 09:32:09;;;;;;;;;;;7.30;99.90;;;-146.41;100.00;57768.22;5004173;28;1898;-70
2024/01/25 09:34:38;;;;;;;;;;;7.20;99.90;;;-146.41;100.00;57768.22;5019649;28;1316;-70
2024/01/25 09:37:07;;;;;;;;;;;7.30;99.90;;;-146.41;100.00;57768.22;5003832;28;1096;-70
2024/01/25 09:39:35;;;;;;;;;;;7.30;99.90;;;-146.41;100.00;57768.22;5004632;28;1292;-69
2024/01/25 09:42:03;;;;;;;;;;;7.40;99.90;;;-146.41;100.00;57768.22;5003029;28;1077;-70
2024/01/25 09:44:30;;;;;;;;;;;7.40;99.90;;;-146.41;100.00;57768.22;5035737;28;1351;-70
2024/01/25 09:46:58;;;;;;;;;;;7.50;99.90;;;-146.41;100.00;57768.22;5004264;28;1307;-69
2024/01/25 09:49:25;;;;;;;;;;;7.60;99.90;;;-146.41;100.00;57768.22;5003845;28;1155;-69
2024/01/25 09:51:52;;;;;;;;;;;7.50;99.90;;;-146.41;100.00;57768.22;5020408;28;1903;-69
2024/01/25 09:54:20;;;;;;;;;;;7.50;99.90;;;-146.41;100.00;57768.22;5034916;28;1419;-69
2024/01/25 09:56:51;;;;;;;;;;;7.60;99.90;;;-146.41;100.00;57768.22;5034291;28;1263;-69
2024/01/25 09:59:18;;;;;;;;;;;7.80;99.90;;;-146.41;100.00;57768.22;5020165;28;1121;-69
2024/01/25 10:01:46;;;;;;;;;;;7.80;99.90;;;-146.41;100.00;57768.22;5005504;28;1265;-70
2024/01/25 10:04:13;;;;;;;;;;;7.80;99.90;;;-146.41;100.00;57768.22;5004495;28;1427;-70
2024/01/25 10:06:40;;;;;;;;;;;7.80;99.90;;;-146.41;100.00;57768.22;5005185;28;1106;-69
2024/01/25 10:09:09;;;;;;;;;;;7.90;99.90;;;-146.41;100.00;57768.22;5002852;28;1114;-69
2024/01/25 10:11:37;;;;;;;;;;;8.10;99.90;;;-146.41;100.00;57768.22;5001161;28;1535;-69
2024/01/25 10:14:11;;;;;;;;;;;8.20;99.90;;;-146.41;100.00;57768.22;5034289;28;1249;-70
2024/01/25 10:16:38;;;;;;;;;;;8.30;99.90;;;-146.41;100.00;57768.22;5019118;28;1396;-70
2024/01/25 10:19:08;;;;;;;;;;;8.40;99.90;;;-146.41;100.00;57768.22;5003110;28;1348;-70
2024/01/25 10:21:36;;;;;;;;;;;8.30;99.90;;;-146.41;100.00;57768.22;5019570;28;1284;-69
2024/01/25 10:24:07;;;;;;;;;;;8.40;99.90;;;-146.41;100.00;57768.22;5018869;28;1296;-70
2024/01/25 10:26:35;;;;;;;;;;;8.40;99.90;;;-146.41;100.00;57768.22;5003564;28;1390;-69
2024/01/25 10:29:02;;;;;;;;;;;8.50;99.90;;;-146.41;100.00;57768.22;5002839;28;1209;-70
2024/01/25 10:31:30;;;;;;;;;;;8.50;99.90;;;-146.41;100.00;57768.22;5004349;28;1229;-70
2024/01/25 10:33:59;;;;;;;;;;;8.50;99.90;;;-146.41;100.00;57768.22;5032983;28;1935;-70
2024/01/25 10:36:27;;;;;;;;;;;8.70;99.90;;;-146.41;100.00;57768.22;5004960;28;1339;-69
2024/01/25 10:38:54;;;;;;;;;;;8.70;99.90;;;-146.41;100.00;57768.22;5002880;28;1450;-70
2024/01/25 10:41:23;;;;;;;;;;;8.80;99.90;;;-146.41;100.00;57768.22;5002456;28;1422;-70
2024/01/25 10:43:54;;;;;;;;;;;8.90;99.90;;;-146.41;100.00;57768.22;5002853;28;1409;-69
2024/01/25 10:46:21;;;;;;;;;;;8.90;99.90;;;-146.41;100.00;57768.22;4986088;28;1291;-69
2024/01/25 10:48:48;;;;;;;;;;;8.90;99.90;;;-146.41;100.00;57768.22;5018558;28;1414;-70
2024/01/25 10:51:18;;;;;;;;;;;8.80;99.90;;;-146.41;100.00;57768.22;5019580;28;1373;-70
2024/01/25 10:53:45;;;;;;;;;;;8.90;99.90;;;-146.41;100.00;57768.22;5012216;28;1974;-70
2024/01/25 10:56:13;;;;;;;;;;;8.80;99.90;;;-146.41;100.00;57768.22;5035138;28;1392;-70
2024/01/25 10:58:41;;;;;;;;;;;8.80;99.90;;;-146.41;100.00;57768.22;5018563;28;1354;-70
2024/01/25 11:01:13;;;;;;;;;;;8.80;99.90;;;-146.41;100.00;57768.22;5018642;28;1325;-70
2024/01/25 11:03:42;;;;;;;;;;;8.80;99.90;;;-146.41;100.00;57768.22;5017621;28;1411;-70
2024/01/25 11:06:11;;;;;;;;;;;8.80;99.90;;;-146.41;100.00;57768.22;5018044;28;1197;-70
2024/01/25 11:08:39;;;;;;;;;;;8.80;99.90;;;-146.41;100.00;57768.22;5034005;28;1322;-70
2024/01/25 11:11:10;;;;;;;;;;;8.80;99.90;;;-146.41;100.00;57768.22;5019839;28;1550;-70